Craig, Iowa
Current Conditions -  °F | °C
As of 10:35 AM on Friday 24 Oct 2014 (Local Time) from KLRJ Reporting Station
Clear Clear  
Wind Chill: 59°   Ceiling: Unl
Heat Index: 59°   Visibility: 9mi
Dew Point: 57°   Wind: 7mph
Humidity: 94%   Direction: 210°SSW
Pressure: 29.91"   Gusts: NA
Location:  42.9°N, 96.31°W
Report Text: KLRJ 241535Z AUTO 21006KT 9SM CLR 15/14 A2991 RMK AO2
Loading
Personal Weather Stations






























Interactive Weather Map
Tropical Storm Tracking
New forecast layout! Learn more

10-Day Weather Forecast

Advertisements
Track Severe Weather on mobile